Airport View

Enter AWOS ICAO identifier for current METAR.

ex. KFNL

KGWW 261125Z AUTO 00000KT 10SM OVC070 23/19 A3009 RMK AO2 T02250193

26 Jun 2019 11:48

Frequency: 118.975

Phone: 919-731-4473

Other Area AWOS: KGSB - KISO - KJNX - KRWI

TAF COR KGSB 260410Z 2604/2710 30006KT 9999 FEW060 FEW250 QNH2995INS BECMG 2615/2616 36006KT 9999 SCT060 QNH2990INS TX34/2620Z TN21/2610Z